createdAt,value
2019-02-22T00:02:56.819Z,78.90
2019-02-22T00:06:01.629Z,78.90
2019-02-22T00:09:07.715Z,78.90
2019-02-22T00:12:12.765Z,78.40
2019-02-22T00:15:17.627Z,79.20
2019-02-22T00:18:22.451Z,79.40
2019-02-22T00:21:27.298Z,78.70
2019-02-22T00:24:32.117Z,78.60
2019-02-22T00:27:36.971Z,78.80
2019-02-22T00:30:41.795Z,78.50
2019-02-22T00:33:46.605Z,77.80
2019-02-22T00:36:51.437Z,77.50
2019-02-22T00:39:56.247Z,77.50
2019-02-22T00:43:01.100Z,77.90
2019-02-22T00:46:05.988Z,78.00
2019-02-22T00:49:10.830Z,77.50
2019-02-22T00:52:15.682Z,78.00
2019-02-22T00:55:21.211Z,78.70
2019-02-22T00:58:26.039Z,78.70
2019-02-22T01:01:30.862Z,78.20
2019-02-22T01:04:35.677Z,78.00
2019-02-22T01:07:40.501Z,77.60
2019-02-22T01:10:45.342Z,76.70
2019-02-22T01:13:50.264Z,76.60
2019-02-22T01:16:57.255Z,76.40
2019-02-22T01:20:01.638Z,76.70
2019-02-22T01:23:07.453Z,76.60
2019-02-22T01:26:13.173Z,76.30
2019-02-22T01:29:18.027Z,77.30
2019-02-22T01:32:22.921Z,77.60
2019-02-22T01:35:27.750Z,78.00
2019-02-22T01:38:32.595Z,78.20
2019-02-22T01:41:37.418Z,78.50
2019-02-22T01:44:42.263Z,78.40
2019-02-22T01:47:47.133Z,78.80
2019-02-22T01:50:51.958Z,78.50
2019-02-22T01:53:56.766Z,77.60
2019-02-22T01:57:01.598Z,77.60
2019-02-22T02:00:08.402Z,78.30
2019-02-22T02:03:14.338Z,77.90
2019-02-22T02:06:19.174Z,77.80
2019-02-22T02:09:24.054Z,77.50
2019-02-22T02:12:28.902Z,77.20
2019-02-22T02:15:33.738Z,77.70
2019-02-22T02:18:38.778Z,77.30
2019-02-22T02:21:43.618Z,77.70
2019-02-22T02:24:49.391Z,77.40
2019-02-22T02:27:54.198Z,77.70
2019-02-22T02:30:59.078Z,78.50
2019-02-22T02:34:03.911Z,78.40
2019-02-22T02:37:08.834Z,78.60
2019-02-22T02:40:13.743Z,78.20
2019-02-22T02:43:18.566Z,78.30
2019-02-22T02:46:23.414Z,77.70
2019-02-22T02:49:28.278Z,77.40
2019-02-22T02:52:33.115Z,77.60
2019-02-22T02:55:38.575Z,77.50
2019-02-22T02:58:43.462Z,77.10
2019-02-22T03:01:48.308Z,76.90
2019-02-22T03:04:53.132Z,76.70
2019-02-22T03:07:58.810Z,76.30
2019-02-22T03:11:03.629Z,76.30
2019-02-22T03:14:08.459Z,76.50
2019-02-22T03:17:13.273Z,76.70
2019-02-22T03:20:18.100Z,76.00
2019-02-22T03:23:22.936Z,76.80
2019-02-22T03:26:28.375Z,76.80
2019-02-22T03:29:33.326Z,75.80
2019-02-22T03:32:38.247Z,75.40
2019-02-22T03:35:43.130Z,76.00
2019-02-22T03:38:48.035Z,76.00
2019-02-22T03:41:52.871Z,75.00
2019-02-22T03:44:57.755Z,74.10
2019-02-22T03:48:02.606Z,72.90
2019-02-22T03:51:08.419Z,73.70
2019-02-22T03:54:13.254Z,72.20
2019-02-22T03:57:19.055Z,71.00
2019-02-22T04:00:23.877Z,70.70
2019-02-22T04:03:28.793Z,69.60
2019-02-22T04:06:33.602Z,68.50
2019-02-22T04:09:38.451Z,67.70
2019-02-22T04:12:43.277Z,68.10
2019-02-22T04:15:48.111Z,68.50
2019-02-22T04:18:53.078Z,68.40
2019-02-22T04:21:57.989Z,68.20
2019-02-22T04:25:02.798Z,68.20
2019-02-22T04:28:07.615Z,67.20
2019-02-22T04:31:12.458Z,67.50
2019-02-22T04:34:17.280Z,66.70
2019-02-22T04:37:22.120Z,67.00
2019-02-22T04:40:26.963Z,65.80
2019-02-22T04:43:31.795Z,65.90
2019-02-22T04:46:36.610Z,65.80
2019-02-22T04:49:41.405Z,65.80
2019-02-22T04:52:46.250Z,65.60
2019-02-22T04:55:51.164Z,65.60
2019-02-22T04:58:56.186Z,65.50
2019-02-22T05:02:02.186Z,66.60
2019-02-22T05:05:07.066Z,64.90
2019-02-22T05:08:11.906Z,65.00
2019-02-22T05:11:16.744Z,65.30
2019-02-22T05:14:21.629Z,66.50
2019-02-22T05:17:26.488Z,66.70
2019-02-22T05:20:31.392Z,68.30
2019-02-22T05:23:36.377Z,67.70
2019-02-22T05:26:41.189Z,68.70
2019-02-22T05:29:46.054Z,69.00
2019-02-22T05:32:50.981Z,69.10
2019-02-22T05:35:55.786Z,69.20
2019-02-22T05:39:00.684Z,69.20
2019-02-22T05:42:07.123Z,70.70
2019-02-22T05:45:11.982Z,70.80
2019-02-22T05:48:16.862Z,70.20
2019-02-22T05:51:21.757Z,70.80
2019-02-22T05:54:26.581Z,70.90
2019-02-22T05:57:31.399Z,70.50
2019-02-22T06:00:36.259Z,71.10
2019-02-22T06:03:41.105Z,70.70
2019-02-22T06:06:45.967Z,70.70
2019-02-22T06:09:50.789Z,70.80
2019-02-22T06:12:55.605Z,68.40
2019-02-22T06:16:00.433Z,67.70
2019-02-22T06:19:05.292Z,67.40
2019-02-22T06:22:10.296Z,67.20
2019-02-22T06:25:15.181Z,66.00
2019-02-22T06:28:20.005Z,66.10
2019-02-22T06:31:25.009Z,65.00
2019-02-22T06:34:29.812Z,64.80
2019-02-22T06:37:35.595Z,65.50
2019-02-22T06:40:40.398Z,65.90
2019-02-22T06:43:45.269Z,65.30
2019-02-22T06:46:51.213Z,63.50
2019-02-22T06:49:56.186Z,62.40
2019-02-22T06:53:00.994Z,62.50
2019-02-22T06:56:05.818Z,62.60
2019-02-22T06:59:10.636Z,61.50
2019-02-22T07:02:15.514Z,61.30
2019-02-22T07:05:20.365Z,61.70
2019-02-22T07:08:25.195Z,61.20
2019-02-22T07:11:37.666Z,60.70
2019-02-22T07:14:41.854Z,60.70
2019-02-22T07:17:46.649Z,59.30
2019-02-22T07:20:51.499Z,58.60
2019-02-22T07:23:56.304Z,57.30
2019-02-22T07:27:01.147Z,57.50
2019-02-22T07:30:08.897Z,54.50
2019-02-22T07:33:13.704Z,54.00
2019-02-22T07:36:19.622Z,54.10
2019-02-22T07:39:27.774Z,49.80
2019-02-22T07:42:30.953Z,48.30
2019-02-22T07:45:35.819Z,47.20
2019-02-22T07:48:40.622Z,48.30
2019-02-22T07:51:45.438Z,49.70
2019-02-22T07:54:50.267Z,50.60
2019-02-22T07:57:55.110Z,52.70
2019-02-22T08:00:59.932Z,53.10
2019-02-22T08:04:04.726Z,53.30
2019-02-22T08:07:09.570Z,53.70
2019-02-22T08:10:14.416Z,54.10
2019-02-22T08:13:20.132Z,53.70
2019-02-22T08:16:26.118Z,53.70
2019-02-22T08:19:30.938Z,53.90
2019-02-22T08:22:35.840Z,53.20
2019-02-22T08:25:40.641Z,53.50
2019-02-22T08:28:45.485Z,52.80
2019-02-22T08:31:50.311Z,51.10
2019-02-22T08:34:55.152Z,50.60
2019-02-22T08:37:59.961Z,51.20
2019-02-22T08:41:04.804Z,51.50
2019-02-22T08:44:09.657Z,50.50
2019-02-22T08:47:14.551Z,49.80
2019-02-22T08:50:19.366Z,49.30
2019-02-22T08:53:24.226Z,48.70
2019-02-22T08:56:29.033Z,49.50
2019-02-22T08:59:33.928Z,48.30
2019-02-22T09:02:38.811Z,46.00
2019-02-22T09:05:44.619Z,46.10
2019-02-22T09:08:49.430Z,46.10
2019-02-22T09:11:54.258Z,45.10
2019-02-22T09:14:59.072Z,43.30
2019-02-22T09:18:04.074Z,41.60
2019-02-22T09:21:08.885Z,41.60
2019-02-22T09:24:13.682Z,40.80
2019-02-22T09:27:18.495Z,37.00
2019-02-22T09:30:23.310Z,35.20
2019-02-22T09:33:28.144Z,33.60
2019-02-22T09:36:32.950Z,32.00
2019-02-22T09:39:37.785Z,32.40
2019-02-22T09:42:42.585Z,31.00
2019-02-22T09:45:47.410Z,29.70
2019-02-22T09:48:52.214Z,31.40
2019-02-22T09:51:57.035Z,30.60
2019-02-22T09:55:01.870Z,28.60
2019-02-22T09:58:08.554Z,30.30
2019-02-22T10:01:13.432Z,28.50
2019-02-22T10:04:18.666Z,29.20
2019-02-22T10:07:23.540Z,29.10
2019-02-22T10:10:28.370Z,28.20
2019-02-22T10:13:33.211Z,27.50
2019-02-22T10:16:38.055Z,25.90
2019-02-22T10:19:42.858Z,27.00
2019-02-22T10:22:47.722Z,26.60
2019-02-22T10:25:52.581Z,25.40
2019-02-22T10:28:57.438Z,27.00
2019-02-22T10:32:02.274Z,25.90
2019-02-22T10:35:07.744Z,24.10
2019-02-22T10:38:12.589Z,23.00
2019-02-22T10:41:17.490Z,24.50
2019-02-22T10:44:22.303Z,24.00
2019-02-22T10:47:27.197Z,23.90
2019-02-22T10:50:32.001Z,23.60
2019-02-22T10:53:36.846Z,22.90
2019-02-22T10:56:41.645Z,22.90
2019-02-22T10:59:46.459Z,24.00
2019-02-22T11:02:51.311Z,23.40
2019-02-22T11:05:56.152Z,22.70
2019-02-22T11:09:00.991Z,22.80
2019-02-22T11:12:07.262Z,23.60
2019-02-22T11:15:13.117Z,22.20
2019-02-22T11:18:17.958Z,21.30
2019-02-22T11:21:22.757Z,22.10
2019-02-22T11:24:27.603Z,22.30
2019-02-22T11:27:32.432Z,22.50
2019-02-22T11:30:37.245Z,21.30
2019-02-22T11:33:42.087Z,22.00
2019-02-22T11:36:46.974Z,22.70
2019-02-22T11:39:51.791Z,22.10
2019-02-22T11:42:56.590Z,21.80
2019-02-22T11:46:01.966Z,21.00
2019-02-22T11:49:06.787Z,21.50
2019-02-22T11:52:11.630Z,20.40
2019-02-22T11:55:16.500Z,21.40
2019-02-22T11:58:21.623Z,21.30
2019-02-22T12:01:26.430Z,22.60
2019-02-22T12:04:32.198Z,22.70
2019-02-22T12:07:37.038Z,22.30
2019-02-22T12:10:41.851Z,21.00
2019-02-22T12:13:46.707Z,21.50
2019-02-22T12:16:51.514Z,21.20
2019-02-22T12:19:56.358Z,22.40
2019-02-22T12:23:01.188Z,21.10
2019-02-22T12:26:06.000Z,20.80
2019-02-22T12:29:10.813Z,20.80
2019-02-22T12:32:15.629Z,20.40
2019-02-22T12:35:20.449Z,20.80
2019-02-22T12:38:25.278Z,20.70
2019-02-22T12:41:30.089Z,20.80
2019-02-22T12:44:34.947Z,20.60
2019-02-22T12:47:39.745Z,20.40
2019-02-22T12:50:44.574Z,20.60
2019-02-22T12:53:49.414Z,20.90
2019-02-22T12:56:57.578Z,21.30
2019-02-22T13:00:00.833Z,21.20
2019-02-22T13:03:06.846Z,21.10
2019-02-22T13:06:11.671Z,21.20
2019-02-22T13:09:16.534Z,20.40
2019-02-22T13:12:21.378Z,20.70
2019-02-22T13:15:26.269Z,20.40
2019-02-22T13:18:32.048Z,21.90
2019-02-22T13:21:36.955Z,20.20
2019-02-22T13:24:41.766Z,21.50
2019-02-22T13:27:46.585Z,21.10
2019-02-22T13:30:51.454Z,20.10
2019-02-22T13:33:56.290Z,21.20
2019-02-22T13:37:01.112Z,19.90
2019-02-22T13:40:16.823Z,20.50
2019-02-22T13:43:21.674Z,19.80
2019-02-22T13:46:26.724Z,20.00
2019-02-22T13:49:31.619Z,20.40
2019-02-22T13:52:36.421Z,20.80
2019-02-22T13:55:41.259Z,21.60
2019-02-22T13:58:46.186Z,21.10
2019-02-22T14:01:50.983Z,20.20
2019-02-22T14:04:55.826Z,19.60
2019-02-22T14:08:01.034Z,19.20
2019-02-22T14:11:05.841Z,20.30
2019-02-22T14:14:10.658Z,21.00
2019-02-22T14:17:15.458Z,19.30
2019-02-22T14:20:20.470Z,19.80
2019-02-22T14:23:25.289Z,19.80
2019-02-22T14:26:30.193Z,19.50
2019-02-22T14:29:35.018Z,19.70
2019-02-22T14:32:39.817Z,19.20
2019-02-22T14:35:44.629Z,19.70
2019-02-22T14:38:49.469Z,20.80
2019-02-22T14:41:54.375Z,21.10
2019-02-22T14:45:01.296Z,20.70
2019-02-22T14:48:06.830Z,20.80
2019-02-22T14:51:11.641Z,20.80
2019-02-22T14:54:16.469Z,20.90
2019-02-22T14:57:21.294Z,21.40
2019-02-22T15:00:26.132Z,21.30
2019-02-22T15:03:30.930Z,21.80
2019-02-22T15:06:35.782Z,21.90
2019-02-22T15:09:40.576Z,22.30
2019-02-22T15:12:45.393Z,22.10
2019-02-22T15:16:06.917Z,22.00
2019-02-22T15:19:11.744Z,22.10
2019-02-22T15:22:16.555Z,22.70
2019-02-22T15:25:22.322Z,23.40
2019-02-22T15:28:27.142Z,23.80
2019-02-22T15:31:35.994Z,24.30
2019-02-22T15:34:39.459Z,25.10
2019-02-22T15:37:44.303Z,25.50
2019-02-22T15:40:49.237Z,24.80
2019-02-22T15:43:54.999Z,25.10
2019-02-22T15:47:11.126Z,25.00
2019-02-22T15:50:11.768Z,25.00
2019-02-22T15:53:16.600Z,24.60
2019-02-22T15:56:21.451Z,25.40
2019-02-22T15:59:26.291Z,25.40
2019-02-22T16:02:31.178Z,25.80
2019-02-22T16:05:40.601Z,25.90
2019-02-22T16:08:45.431Z,26.50
2019-02-22T16:11:52.339Z,25.30
2019-02-22T16:14:58.372Z,25.60
2019-02-22T16:18:05.725Z,25.30
2019-02-22T16:21:10.637Z,25.40
2019-02-22T16:24:15.546Z,26.10
2019-02-22T16:27:20.376Z,26.30
2019-02-22T16:30:27.391Z,26.40
2019-02-22T16:33:32.244Z,26.80
2019-02-22T16:36:37.121Z,27.20
2019-02-22T16:39:41.971Z,27.70
2019-02-22T16:42:46.799Z,27.10
2019-02-22T16:45:51.644Z,27.30
2019-02-22T16:48:56.483Z,26.00
2019-02-22T16:52:01.286Z,26.80
2019-02-22T16:55:09.511Z,26.00
2019-02-22T16:58:14.742Z,26.10
2019-02-22T17:01:20.521Z,27.10
2019-02-22T17:04:25.383Z,26.70
2019-02-22T17:07:30.217Z,26.80
2019-02-22T17:10:35.036Z,27.20
2019-02-22T17:13:39.837Z,27.20
2019-02-22T17:16:46.138Z,27.00
2019-02-22T17:19:51.168Z,27.10
2019-02-22T17:22:55.993Z,27.20
2019-02-22T17:26:00.801Z,27.00
2019-02-22T17:29:05.634Z,26.60
2019-02-22T17:32:10.445Z,27.00
2019-02-22T17:35:15.249Z,26.50
2019-02-22T17:38:20.072Z,26.90
2019-02-22T17:41:24.889Z,27.10
2019-02-22T17:44:29.726Z,27.10
2019-02-22T17:47:34.542Z,26.80
2019-02-22T17:50:39.350Z,26.40
2019-02-22T17:53:46.273Z,26.60
2019-02-22T17:56:51.108Z,26.70
2019-02-22T17:59:55.947Z,27.00
2019-02-22T18:03:00.846Z,27.50
2019-02-22T18:06:05.794Z,27.80
2019-02-22T18:09:10.634Z,28.10
2019-02-22T18:12:15.494Z,28.40
2019-02-22T18:15:20.298Z,28.30
2019-02-22T18:18:25.189Z,29.00
2019-02-22T18:21:30.015Z,28.70
2019-02-22T18:24:34.855Z,28.80
2019-02-22T18:27:39.666Z,29.00
2019-02-22T18:30:44.512Z,29.30
2019-02-22T18:33:49.324Z,29.50
2019-02-22T18:36:55.047Z,28.70
2019-02-22T18:39:59.864Z,29.10
2019-02-22T18:43:04.678Z,28.40
2019-02-22T18:46:09.489Z,29.10
2019-02-22T18:49:14.344Z,28.40
2019-02-22T18:52:19.306Z,28.50
2019-02-22T18:55:24.149Z,28.30
2019-02-22T18:58:28.954Z,28.60
2019-02-22T19:01:33.761Z,28.60
2019-02-22T19:04:38.614Z,29.10
2019-02-22T19:07:43.413Z,28.80
2019-02-22T19:10:48.234Z,29.00
2019-02-22T19:13:53.113Z,29.30
2019-02-22T19:16:57.935Z,29.20
2019-02-22T19:20:02.841Z,28.20
2019-02-22T19:23:07.671Z,29.10
2019-02-22T19:26:12.487Z,28.80
2019-02-22T19:29:17.326Z,29.20
2019-02-22T19:32:22.166Z,29.10
2019-02-22T19:35:26.980Z,29.10
2019-02-22T19:38:31.786Z,29.30
2019-02-22T19:41:36.590Z,28.80
2019-02-22T19:44:41.410Z,28.70
2019-02-22T19:47:46.225Z,28.80
2019-02-22T19:50:51.058Z,29.00
2019-02-22T19:53:55.877Z,29.40
2019-02-22T19:57:00.678Z,29.20
2019-02-22T20:00:11.708Z,29.10
2019-02-22T20:03:16.535Z,28.30
2019-02-22T20:06:21.378Z,28.00
2019-02-22T20:09:26.218Z,27.40
2019-02-22T20:12:31.023Z,27.30
2019-02-22T20:15:35.866Z,28.20
2019-02-22T20:18:40.669Z,27.30
2019-02-22T20:21:45.486Z,27.80
2019-02-22T20:24:50.326Z,27.10
2019-02-22T20:27:55.174Z,27.20
2019-02-22T20:31:00.090Z,26.40
2019-02-22T20:34:04.901Z,27.30
2019-02-22T20:37:09.844Z,26.30
2019-02-22T20:40:14.770Z,26.50
2019-02-22T20:43:19.734Z,26.90
2019-02-22T20:46:24.542Z,26.70
2019-02-22T20:52:39.852Z,26.20
2019-02-22T20:55:44.692Z,26.20
2019-02-22T20:58:49.692Z,26.80
2019-02-22T21:01:54.538Z,26.50
2019-02-22T21:04:59.343Z,25.60
2019-02-22T21:08:04.236Z,26.20
2019-02-22T21:11:09.043Z,25.70
2019-02-22T21:14:13.851Z,26.20
2019-02-22T21:17:18.667Z,26.70
2019-02-22T21:20:23.742Z,26.30
2019-02-22T21:23:28.582Z,26.40
2019-02-22T21:26:33.414Z,27.00
2019-02-22T21:29:39.209Z,27.50
2019-02-22T21:32:44.142Z,28.00
2019-02-22T21:35:49.952Z,29.00
2019-02-22T21:38:54.769Z,28.00
2019-02-22T21:41:59.604Z,28.50
2019-02-22T21:45:06.585Z,28.90
2019-02-22T21:48:13.029Z,28.70
2019-02-22T21:51:17.861Z,28.80
2019-02-22T21:54:23.193Z,28.90
2019-02-22T21:57:28.040Z,29.10
2019-02-22T22:00:32.884Z,29.40
2019-02-22T22:03:37.699Z,29.30
2019-02-22T22:06:42.525Z,29.40
2019-02-22T22:09:47.442Z,30.60
2019-02-22T22:12:52.248Z,30.00
2019-02-22T22:15:58.108Z,30.10
2019-02-22T22:19:02.950Z,30.10
2019-02-22T22:22:07.790Z,30.50
2019-02-22T22:25:14.641Z,30.40
2019-02-22T22:28:19.472Z,30.80
2019-02-22T22:31:24.309Z,30.80
2019-02-22T22:34:29.134Z,30.00
2019-02-22T22:37:33.971Z,30.30
2019-02-22T22:40:38.852Z,30.10
2019-02-22T22:43:43.683Z,30.60
2019-02-22T22:46:48.492Z,30.20
2019-02-22T22:49:53.322Z,30.50
2019-02-22T22:52:58.158Z,30.60
2019-02-22T22:56:02.995Z,30.00
2019-02-22T22:59:07.821Z,30.40
2019-02-22T23:02:12.625Z,30.60
2019-02-22T23:05:17.429Z,31.00
2019-02-22T23:08:22.342Z,30.90
2019-02-22T23:11:28.198Z,30.80
2019-02-22T23:14:33.045Z,31.00
2019-02-22T23:17:37.853Z,30.90
2019-02-22T23:20:42.698Z,31.30
2019-02-22T23:23:47.632Z,31.30
2019-02-22T23:26:52.533Z,31.30
2019-02-22T23:29:57.989Z,31.00
2019-02-22T23:33:02.903Z,31.10
2019-02-22T23:36:07.750Z,31.10
2019-02-22T23:39:12.596Z,31.70
2019-02-22T23:42:17.430Z,31.80
2019-02-22T23:45:23.238Z,31.70
2019-02-22T23:48:28.051Z,31.90
2019-02-22T23:51:32.878Z,32.20
2019-02-22T23:54:37.740Z,31.60
2019-02-22T23:57:42.577Z,31.40
